createdAt,value
2023-03-13T00:01:30.163Z,29.85
2023-03-13T00:03:58.215Z,29.73
2023-03-13T00:06:32.110Z,29.42
2023-03-13T00:09:01.252Z,28.60
2023-03-13T00:11:29.960Z,27.50
2023-03-13T00:13:59.603Z,27.50
2023-03-13T00:16:28.610Z,28.90
2023-03-13T00:18:58.294Z,27.95
2023-03-13T00:21:29.914Z,27.08
2023-03-13T00:24:00.456Z,26.83
2023-03-13T00:26:30.092Z,26.60
2023-03-13T00:28:58.745Z,27.15
2023-03-13T00:31:28.410Z,26.63
2023-03-13T00:34:00.261Z,26.63
2023-03-13T00:36:31.954Z,26.75
2023-03-13T00:39:01.005Z,27.40
2023-03-13T00:41:31.248Z,26.83
2023-03-13T00:44:00.247Z,26.77
2023-03-13T00:46:30.888Z,27.08
2023-03-13T00:48:59.701Z,26.92
2023-03-13T00:51:29.774Z,26.35
2023-03-13T00:54:00.581Z,27.05
2023-03-13T00:56:29.459Z,27.20
2023-03-13T00:58:57.664Z,27.05
2023-03-13T01:01:27.409Z,27.60
2023-03-13T01:03:57.225Z,27.40
2023-03-13T01:06:29.844Z,27.88
2023-03-13T01:08:58.215Z,27.67
2023-03-13T01:11:28.403Z,27.92
2023-03-13T01:13:59.105Z,28.10
2023-03-13T01:16:28.920Z,28.23
2023-03-13T01:19:00.505Z,29.27
2023-03-13T01:21:32.795Z,28.58
2023-03-13T01:24:01.099Z,29.05
2023-03-13T01:26:29.467Z,28.45
2023-03-13T01:28:57.571Z,29.60
2023-03-13T01:31:27.643Z,29.90
2023-03-13T01:34:01.353Z,29.40
2023-03-13T01:36:31.775Z,29.23
2023-03-13T01:39:03.397Z,28.92
2023-03-13T01:41:32.359Z,28.88
2023-03-13T01:44:00.706Z,28.17
2023-03-13T01:46:29.848Z,29.05
2023-03-13T01:49:03.612Z,28.98
2023-03-13T01:51:36.318Z,29.13
2023-03-13T01:54:09.001Z,28.70
2023-03-13T01:56:43.307Z,28.92
2023-03-13T01:59:14.857Z,29.83
2023-03-13T02:01:45.337Z,29.67
2023-03-13T02:04:15.697Z,30.25
2023-03-13T02:06:47.830Z,30.77
2023-03-13T02:09:19.296Z,28.83
2023-03-13T02:11:51.096Z,29.58
2023-03-13T02:14:22.460Z,28.85
2023-03-13T02:16:52.234Z,28.55
2023-03-13T02:19:24.179Z,29.27
2023-03-13T02:21:58.033Z,28.10
2023-03-13T02:24:34.762Z,27.25
2023-03-13T02:27:05.077Z,26.38
2023-03-13T02:29:33.216Z,28.23
2023-03-13T02:32:01.403Z,28.25
2023-03-13T02:34:33.530Z,27.52
2023-03-13T02:37:02.840Z,28.00
2023-03-13T02:39:33.608Z,27.83
2023-03-13T02:42:04.941Z,28.52
2023-03-13T02:44:35.431Z,28.50
2023-03-13T02:47:03.814Z,28.45
2023-03-13T02:49:32.944Z,27.30
2023-03-13T02:52:09.479Z,27.25
2023-03-13T02:54:40.688Z,28.17
2023-03-13T02:57:12.653Z,26.42
2023-03-13T02:59:40.976Z,25.60
2023-03-13T03:02:09.096Z,26.52
2023-03-13T03:04:37.486Z,26.30
2023-03-13T03:07:05.874Z,24.95
2023-03-13T03:09:34.074Z,25.20
2023-03-13T03:12:02.310Z,25.30
2023-03-13T03:14:38.292Z,25.17
2023-03-13T03:17:06.440Z,24.45
2023-03-13T03:19:34.542Z,25.10
2023-03-13T03:22:03.235Z,25.20
2023-03-13T03:24:31.359Z,24.48
2023-03-13T03:26:59.721Z,24.35
2023-03-13T03:29:28.048Z,24.13
2023-03-13T03:31:57.901Z,24.90
2023-03-13T03:34:25.966Z,25.25
2023-03-13T03:36:54.074Z,25.02
2023-03-13T03:39:22.137Z,25.55
2023-03-13T03:41:50.283Z,24.85
2023-03-13T03:44:18.424Z,25.80
2023-03-13T03:46:46.796Z,25.80
2023-03-13T03:49:16.381Z,25.48
2023-03-13T03:51:44.604Z,25.15
2023-03-13T03:54:12.676Z,25.27
2023-03-13T03:56:40.698Z,25.58
2023-03-13T03:59:10.289Z,26.00
2023-03-13T04:01:38.538Z,26.30
2023-03-13T04:04:06.821Z,25.88
2023-03-13T04:06:36.318Z,25.30
2023-03-13T04:09:04.909Z,26.30
2023-03-13T04:11:33.038Z,26.45
2023-03-13T04:14:01.159Z,25.40
2023-03-13T04:16:31.937Z,26.63
2023-03-13T04:18:59.968Z,26.42
2023-03-13T04:21:28.133Z,25.63
2023-03-13T04:23:58.662Z,26.00
2023-03-13T04:26:26.869Z,25.65
2023-03-13T04:28:55.552Z,25.55
2023-03-13T04:31:23.710Z,26.10
2023-03-13T04:33:52.721Z,25.33
2023-03-13T04:36:20.729Z,24.27
2023-03-13T04:38:48.988Z,25.15
2023-03-13T04:41:18.500Z,24.85
2023-03-13T04:43:47.776Z,24.50
2023-03-13T04:46:16.201Z,24.65
2023-03-13T04:48:44.332Z,25.52
2023-03-13T04:51:12.485Z,24.58
2023-03-13T04:53:41.012Z,25.50
2023-03-13T04:56:09.363Z,25.38
2023-03-13T04:58:39.100Z,25.10
2023-03-13T05:01:07.299Z,25.27
2023-03-13T05:03:35.398Z,25.50
2023-03-13T05:06:03.485Z,25.45
2023-03-13T05:08:31.654Z,25.50
2023-03-13T05:10:59.815Z,24.63
2023-03-13T05:13:27.825Z,25.42
2023-03-13T05:15:57.447Z,24.88
2023-03-13T05:18:28.217Z,26.05
2023-03-13T05:21:00.460Z,25.40
2023-03-13T05:23:28.737Z,25.40
2023-03-13T05:25:57.079Z,26.33
2023-03-13T05:28:25.166Z,26.98
2023-03-13T05:30:57.200Z,26.60
2023-03-13T05:33:25.223Z,26.35
2023-03-13T05:35:53.679Z,26.73
2023-03-13T05:38:21.849Z,25.73
2023-03-13T05:40:50.107Z,26.17
2023-03-13T05:43:18.261Z,26.15
2023-03-13T05:45:49.525Z,27.17
2023-03-13T05:48:22.779Z,27.42
2023-03-13T05:50:50.789Z,26.75
2023-03-13T05:53:21.206Z,27.70
2023-03-13T05:55:49.388Z,27.98
2023-03-13T05:58:17.480Z,27.00
2023-03-13T06:00:45.576Z,27.05
2023-03-13T06:03:14.495Z,27.65
2023-03-13T06:05:44.190Z,26.90
2023-03-13T06:08:12.723Z,27.27
2023-03-13T06:10:40.823Z,27.80
2023-03-13T06:13:19.476Z,27.55
2023-03-13T06:15:53.263Z,27.15
2023-03-13T06:18:29.186Z,26.85
2023-03-13T06:21:00.677Z,26.98
2023-03-13T06:23:32.091Z,26.77
2023-03-13T06:26:01.729Z,26.75
2023-03-13T06:28:32.539Z,27.27
2023-03-13T06:31:03.807Z,26.23
2023-03-13T06:33:32.744Z,25.85
2023-03-13T06:36:03.633Z,25.73
2023-03-13T06:38:32.210Z,25.95
2023-03-13T06:41:00.313Z,26.35
2023-03-13T06:43:28.869Z,25.80
2023-03-13T06:45:57.085Z,24.65
2023-03-13T06:48:25.098Z,25.38
2023-03-13T06:50:56.668Z,24.85
2023-03-13T06:53:26.486Z,24.38
2023-03-13T06:55:54.662Z,24.33
2023-03-13T06:58:32.079Z,24.55
2023-03-13T07:01:01.245Z,25.83
2023-03-13T07:03:29.577Z,24.95
2023-03-13T07:05:58.403Z,24.30
2023-03-13T07:08:28.805Z,24.48
2023-03-13T07:11:02.107Z,24.70
2023-03-13T07:13:39.045Z,24.73
2023-03-13T07:16:09.255Z,25.25
2023-03-13T07:18:38.307Z,23.45
2023-03-13T07:21:07.107Z,25.17
2023-03-13T07:23:37.001Z,24.38
2023-03-13T07:26:07.904Z,23.63
2023-03-13T07:28:37.809Z,23.15
2023-03-13T07:31:08.402Z,23.40
2023-03-13T07:33:36.572Z,24.27
2023-03-13T07:36:05.755Z,23.95
2023-03-13T07:38:33.970Z,23.63
2023-03-13T07:41:04.078Z,24.45
2023-03-13T07:43:34.785Z,23.95
2023-03-13T07:46:05.940Z,23.70
2023-03-13T07:48:36.270Z,24.48
2023-03-13T07:51:05.692Z,24.13
2023-03-13T07:53:34.498Z,24.27
2023-03-13T07:56:07.811Z,24.65
2023-03-13T07:58:39.921Z,23.92
2023-03-13T08:01:16.493Z,24.95
2023-03-13T08:03:50.893Z,23.77
2023-03-13T08:06:21.393Z,23.33
2023-03-13T08:08:49.584Z,23.10
2023-03-13T08:11:20.795Z,23.15
2023-03-13T08:13:49.823Z,23.20
2023-03-13T08:16:23.150Z,23.65
2023-03-13T08:18:54.047Z,24.88
2023-03-13T08:21:24.218Z,24.02
2023-03-13T08:23:54.979Z,23.35
2023-03-13T08:26:27.135Z,23.65
2023-03-13T08:28:59.950Z,23.30
2023-03-13T08:31:30.509Z,23.45
2023-03-13T08:33:59.433Z,23.67
2023-03-13T08:36:29.714Z,24.08
2023-03-13T08:39:00.720Z,23.90
2023-03-13T08:41:36.311Z,24.15
2023-03-13T08:44:06.215Z,23.98
2023-03-13T08:46:36.657Z,24.38
2023-03-13T08:49:09.314Z,24.70
2023-03-13T08:51:41.620Z,25.42
2023-03-13T08:54:10.214Z,25.38
2023-03-13T08:56:44.917Z,25.63
2023-03-13T08:59:15.410Z,25.38
2023-03-13T09:01:43.534Z,25.77
2023-03-13T09:04:11.689Z,25.63
2023-03-13T09:06:40.128Z,26.75
2023-03-13T09:09:11.856Z,26.50
2023-03-13T09:11:44.300Z,26.88
2023-03-13T09:14:12.675Z,27.33
2023-03-13T09:16:47.249Z,27.70
2023-03-13T09:19:15.867Z,27.77
2023-03-13T09:21:44.186Z,27.42
2023-03-13T09:24:12.305Z,27.73
2023-03-13T09:27:01.002Z,27.83
2023-03-13T09:29:29.924Z,29.05
2023-03-13T09:31:58.460Z,29.15
2023-03-13T09:34:29.459Z,29.92
2023-03-13T09:36:57.763Z,29.10
2023-03-13T09:39:26.047Z,29.15
2023-03-13T09:42:06.755Z,28.90
2023-03-13T09:44:41.015Z,28.98
2023-03-13T09:47:16.906Z,28.80
2023-03-13T09:49:51.348Z,29.40
2023-03-13T09:52:23.697Z,28.83
2023-03-13T09:54:56.150Z,29.75
2023-03-13T09:57:34.644Z,29.35
2023-03-13T10:00:11.487Z,29.35
2023-03-13T10:02:47.664Z,30.02
2023-03-13T10:05:20.391Z,30.73
2023-03-13T10:07:49.403Z,29.90
2023-03-13T10:10:18.681Z,30.50
2023-03-13T10:12:53.888Z,30.25
2023-03-13T10:15:34.978Z,30.42
2023-03-13T10:18:14.457Z,29.80
2023-03-13T10:20:45.140Z,31.63
2023-03-13T10:23:20.445Z,32.17
2023-03-13T10:25:48.839Z,31.17
2023-03-13T10:28:20.684Z,31.48
2023-03-13T10:30:53.599Z,31.80
2023-03-13T10:33:25.325Z,31.10
2023-03-13T10:36:12.112Z,31.90
2023-03-13T10:38:50.688Z,34.20
2023-03-13T10:41:31.077Z,34.38
2023-03-13T10:44:05.385Z,35.00
2023-03-13T10:46:35.756Z,34.30
2023-03-13T10:49:06.370Z,34.22
2023-03-13T10:51:40.220Z,34.75
2023-03-13T10:54:23.184Z,33.35
2023-03-13T10:56:51.640Z,31.25
2023-03-13T10:59:25.506Z,31.48
2023-03-13T11:01:54.654Z,32.38
2023-03-13T11:04:31.789Z,31.65
2023-03-13T11:07:05.548Z,33.45
2023-03-13T11:09:34.261Z,28.63
2023-03-13T11:12:11.667Z,29.60
2023-03-13T11:14:42.778Z,28.35
2023-03-13T11:17:20.471Z,31.58
2023-03-13T11:20:22.459Z,30.50
2023-03-13T11:23:06.684Z,25.52
2023-03-13T11:25:39.659Z,25.45
2023-03-13T11:28:27.016Z,19.35
2023-03-13T11:31:08.298Z,14.63
2023-03-13T11:33:43.581Z,8.65
2023-03-13T11:36:20.139Z,7.63
2023-03-13T11:38:56.798Z,5.00
2023-03-13T11:41:39.423Z,4.72
2023-03-13T11:44:31.499Z,3.90
2023-03-13T11:47:32.183Z,3.83
2023-03-13T11:50:16.985Z,4.38
2023-03-13T11:52:59.768Z,4.53
2023-03-13T11:55:43.858Z,4.40
2023-03-13T11:58:34.717Z,5.32
2023-03-13T12:01:08.397Z,5.05
2023-03-13T12:03:45.830Z,5.43
2023-03-13T12:06:28.587Z,5.60
2023-03-13T12:09:01.969Z,5.88
2023-03-13T12:11:34.126Z,7.38
2023-03-13T12:14:05.037Z,6.93
2023-03-13T12:16:42.502Z,6.63
2023-03-13T12:19:18.697Z,8.68
2023-03-13T12:21:55.702Z,8.18
2023-03-13T12:24:31.603Z,6.95
2023-03-13T12:27:03.955Z,7.28
2023-03-13T12:29:56.860Z,8.68
2023-03-13T12:32:40.138Z,7.25
2023-03-13T12:35:29.274Z,7.78
2023-03-13T12:38:07.978Z,6.00
2023-03-13T12:40:42.872Z,5.90
2023-03-13T12:43:18.660Z,5.03
2023-03-13T12:46:02.345Z,4.97
2023-03-13T12:48:57.571Z,4.97
2023-03-13T12:51:42.718Z,5.47
2023-03-13T12:54:42.420Z,5.32
2023-03-13T12:57:46.442Z,4.70
2023-03-13T13:00:20.433Z,4.32
2023-03-13T13:02:49.657Z,4.30
2023-03-13T13:05:28.250Z,4.35
2023-03-13T13:08:01.090Z,4.85
2023-03-13T13:10:32.239Z,4.38
2023-03-13T13:13:33.877Z,4.43
2023-03-13T13:16:23.902Z,4.70
2023-03-13T13:19:31.078Z,4.40
2023-03-13T13:22:47.969Z,4.60
2023-03-13T13:25:34.225Z,4.85
2023-03-13T13:28:27.705Z,4.68
2023-03-13T13:31:06.276Z,5.30
2023-03-13T13:33:44.267Z,5.30
2023-03-13T13:36:32.105Z,4.55
2023-03-13T13:39:23.036Z,4.65
2023-03-13T13:41:57.113Z,5.63
2023-03-13T13:44:56.941Z,5.18
2023-03-13T13:47:28.304Z,4.70
2023-03-13T13:49:58.610Z,5.60
2023-03-13T13:53:04.187Z,5.18
2023-03-13T13:55:47.024Z,5.47
2023-03-13T13:58:35.776Z,6.03
2023-03-13T14:01:11.450Z,5.05
2023-03-13T14:03:51.479Z,5.53
2023-03-13T14:06:44.394Z,5.00
2023-03-13T14:09:42.777Z,5.85
2023-03-13T14:12:34.172Z,4.80
2023-03-13T14:15:25.610Z,5.40
2023-03-13T14:21:14.947Z,4.80
2023-03-13T14:23:46.956Z,4.50
2023-03-13T14:26:19.071Z,5.28
2023-03-13T14:28:50.903Z,4.75
2023-03-13T14:31:34.415Z,4.72
2023-03-13T14:34:09.874Z,4.43
2023-03-13T14:36:49.098Z,4.75
2023-03-13T14:39:24.051Z,4.82
2023-03-13T14:41:55.290Z,5.15
2023-03-13T14:44:34.889Z,4.95
2023-03-13T14:47:12.675Z,5.55
2023-03-13T14:49:51.421Z,4.55
2023-03-13T14:52:26.847Z,4.43
2023-03-13T14:55:06.773Z,3.85
2023-03-13T14:57:38.606Z,4.00
2023-03-13T15:00:38.755Z,4.35
2023-03-13T15:03:36.576Z,4.28
2023-03-13T15:06:25.196Z,4.88
2023-03-13T15:09:35.430Z,4.75
2023-03-13T15:13:07.052Z,4.68
2023-03-13T15:15:35.419Z,4.60
2023-03-13T15:18:21.546Z,5.03
2023-03-13T15:20:59.610Z,5.28
2023-03-13T15:23:44.358Z,4.53
2023-03-13T15:26:48.608Z,5.22
2023-03-13T15:29:30.791Z,4.43
2023-03-13T15:32:38.117Z,5.32
2023-03-13T15:35:28.576Z,5.03
2023-03-13T15:38:05.588Z,4.38
2023-03-13T15:40:37.710Z,5.68
2023-03-13T15:43:19.978Z,4.68
2023-03-13T15:45:57.496Z,5.20
2023-03-13T15:49:10.442Z,4.82
2023-03-13T15:51:47.730Z,4.85
2023-03-13T15:57:30.114Z,5.20
2023-03-13T16:00:10.651Z,4.50
2023-03-13T16:03:05.124Z,4.97
2023-03-13T16:05:35.602Z,5.05
2023-03-13T16:08:13.993Z,4.97
2023-03-13T16:10:52.467Z,5.28
2023-03-13T16:13:44.968Z,4.60
2023-03-13T16:16:37.256Z,5.65
2023-03-13T16:19:14.904Z,4.47
2023-03-13T16:21:48.681Z,5.45
2023-03-13T16:24:36.577Z,5.20
2023-03-13T16:27:33.313Z,4.90
2023-03-13T16:30:07.963Z,4.82
2023-03-13T16:32:39.588Z,5.10
2023-03-13T16:35:11.437Z,5.18
2023-03-13T16:37:52.498Z,4.95
2023-03-13T16:40:29.873Z,4.75
2023-03-13T16:43:09.756Z,5.25
2023-03-13T16:45:47.005Z,5.03
2023-03-13T16:52:24.859Z,4.63
2023-03-13T16:55:07.076Z,4.60
2023-03-13T16:58:04.142Z,5.57
2023-03-13T17:00:37.117Z,5.68
2023-03-13T17:03:24.543Z,5.35
2023-03-13T17:06:02.854Z,6.07
2023-03-13T17:08:38.408Z,4.80
2023-03-13T17:11:21.958Z,5.45
2023-03-13T17:14:30.673Z,5.13
2023-03-13T17:47:09.655Z,5.45
2023-03-13T18:01:31.582Z,4.25
2023-03-13T18:04:35.113Z,5.05
2023-03-13T18:08:15.974Z,4.97
2023-03-13T22:19:56.811Z,4.95
2023-03-13T22:22:25.078Z,4.78
2023-03-13T22:24:54.936Z,4.95
2023-03-13T22:27:25.438Z,4.28
2023-03-13T22:29:54.694Z,4.20
2023-03-13T22:32:24.522Z,4.85
2023-03-13T22:34:52.975Z,4.55
2023-03-13T22:37:26.863Z,4.13
2023-03-13T22:39:54.996Z,4.50
2023-03-13T22:42:26.828Z,5.18
2023-03-13T22:44:55.761Z,4.50
2023-03-13T22:47:24.682Z,5.55
2023-03-13T22:49:53.526Z,5.05
2023-03-13T22:52:28.961Z,5.00
2023-03-13T22:54:57.173Z,4.85
2023-03-13T22:57:25.851Z,4.45
2023-03-13T22:59:53.989Z,4.80
2023-03-13T23:02:22.581Z,4.05
2023-03-13T23:04:53.370Z,4.28
2023-03-13T23:07:23.467Z,4.22
2023-03-13T23:09:51.464Z,3.50
2023-03-13T23:12:19.511Z,3.80
2023-03-13T23:14:47.509Z,4.43
2023-03-13T23:17:15.805Z,4.28
2023-03-13T23:19:43.870Z,5.28
2023-03-13T23:22:13.079Z,5.97
2023-03-13T23:24:42.824Z,6.60
2023-03-13T23:27:11.149Z,7.53
2023-03-13T23:29:39.328Z,7.65
2023-03-13T23:32:08.029Z,8.68
2023-03-13T23:34:36.613Z,10.00
2023-03-13T23:37:05.021Z,9.40
2023-03-13T23:39:33.261Z,9.80
2023-03-13T23:42:04.429Z,10.32
2023-03-13T23:44:32.719Z,11.18
2023-03-13T23:47:01.097Z,12.60
2023-03-13T23:49:31.838Z,13.52
2023-03-13T23:52:00.115Z,14.50
2023-03-13T23:54:28.363Z,16.63
2023-03-13T23:56:56.609Z,17.00
2023-03-13T23:59:26.262Z,16.77
